Time;durP1;ratioP1;P1;durP2;ratioP2;P2;SDS_P1;SDS_P2;PMS_P1;PMS_P2;Temp;Humidity;BMP_temperature;BMP_pressure;BME280_temperature;BME280_humidity;BME280_pressure;Samples;Min_cycle;Max_cycle;Signal;HPM_P1;HPM_P2
2021/01/29 00:02:14;;;;;;;8.63;2.28;;;15.70;62.30;;;;;;4993065;28;20473;-52
2021/01/29 00:04:40;;;;;;;4.13;1.95;;;15.60;62.30;;;;;;4993164;28;20085;-49
2021/01/29 00:07:07;;;;;;;5.15;2.65;;;15.70;62.40;;;;;;4992917;28;20030;-50
2021/01/29 00:09:34;;;;;;;3.88;2.33;;;15.60;62.40;;;;;;4993179;28;20015;-50
2021/01/29 00:12:00;;;;;;;4.68;1.90;;;15.60;62.50;;;;;;4992746;28;20393;-49
2021/01/29 00:14:26;;;;;;;3.03;2.03;;;15.60;62.50;;;;;;4993344;28;20022;-49
2021/01/29 00:16:52;;;;;;;3.42;1.88;;;15.60;62.50;;;;;;4993016;28;20076;-48
2021/01/29 00:19:17;;;;;;;4.07;1.80;;;15.60;62.60;;;;;;4992927;28;20023;-49
2021/01/29 00:21:43;;;;;;;3.47;2.15;;;15.60;62.60;;;;;;4992669;28;20386;-49
2021/01/29 00:24:09;;;;;;;4.85;2.22;;;15.60;62.70;;;;;;4975514;28;20037;-48
2021/01/29 00:26:34;;;;;;;3.75;2.28;;;15.60;62.60;;;;;;4992779;28;20453;-49
2021/01/29 00:29:00;;;;;;;5.05;2.47;;;15.50;83.30;;;;;;4992818;28;20109;-50
2021/01/29 00:31:25;;;;;;;3.45;2.28;;;15.50;62.60;;;;;;4991958;28;20040;-48
2021/01/29 00:33:51;;;;;;;4.07;2.25;;;15.50;62.60;;;;;;4992224;28;20018;-49
2021/01/29 00:36:17;;;;;;;4.75;2.25;;;15.50;62.60;;;;;;4992666;28;20035;-47
2021/01/29 00:38:42;;;;;;;3.80;2.13;;;15.50;62.70;;;;;;4992395;28;20050;-49
2021/01/29 00:41:08;;;;;;;4.25;2.13;;;15.50;62.70;;;;;;4992728;28;20031;-51
2021/01/29 00:43:33;;;;;;;5.25;1.98;;;15.50;62.70;;;;;;4992626;28;20030;-49
2021/01/29 00:45:59;;;;;;;5.80;2.25;;;15.50;62.70;;;;;;4992461;28;20026;-49
2021/01/29 00:48:25;;;;;;;3.55;2.42;;;15.50;62.70;;;;;;4992585;28;20061;-49
2021/01/29 00:50:50;;;;;;;4.20;2.05;;;15.50;62.70;;;;;;4992098;28;20465;-48
2021/01/29 00:53:16;;;;;;;5.60;1.90;;;15.50;62.80;;;;;;4992360;28;20031;-51
2021/01/29 00:55:41;;;;;;;3.50;2.20;;;15.50;62.80;;;;;;4992300;28;20072;-51
2021/01/29 00:58:07;;;;;;;4.60;2.42;;;15.50;62.80;;;;;;4992635;28;20018;-48
2021/01/29 01:00:33;;;;;;;4.93;2.20;;;15.40;62.80;;;;;;4992225;28;20023;-49
2021/01/29 01:02:58;;;;;;;4.60;2.42;;;15.40;62.80;;;;;;4992550;28;20042;-48
2021/01/29 01:05:25;;;;;;;3.70;2.35;;;15.40;62.80;;;;;;4992544;28;20023;-47
2021/01/29 01:07:51;;;;;;;3.55;2.30;;;15.40;62.80;;;;;;4992414;28;20026;-49
2021/01/29 01:10:18;;;;;;;3.22;1.95;;;15.40;62.90;;;;;;4992124;28;20089;-50
2021/01/29 01:12:44;;;;;;;3.95;2.00;;;15.40;62.90;;;;;;4992501;28;20027;-50
2021/01/29 01:15:22;;;;;;;3.67;1.77;;;15.40;62.90;;;;;;4993381;28;20053;-48
2021/01/29 01:17:49;;;;;;;4.20;2.30;;;15.40;62.90;;;;;;4992015;28;20030;-48
2021/01/29 01:20:18;;;;;;;3.10;2.10;;;15.40;62.90;;;;;;4992098;28;20105;-49
2021/01/29 01:22:44;;;;;;;4.53;2.70;;;15.40;63.60;;;;;;4992437;28;20037;-48
2021/01/29 01:25:10;;;;;;;4.07;2.30;;;15.40;63.00;;;;;;4992397;28;20113;-50
2021/01/29 01:27:35;;;;;;;3.22;2.15;;;15.30;62.90;;;;;;4992063;28;20533;-49
2021/01/29 01:30:11;;;;;;;3.25;2.13;;;15.30;63.00;;;;;;4992185;28;20109;-48
2021/01/29 01:32:38;;;;;;;3.92;2.60;;;15.40;84.30;;;;;;4992146;28;20378;-52
2021/01/29 01:35:05;;;;;;;5.80;2.13;;;15.30;62.90;;;;;;4991913;28;20034;-49
2021/01/29 01:37:30;;;;;;;2.97;2.00;;;15.40;84.00;;;;;;4991849;28;20026;-50
2021/01/29 01:39:56;;;;;;;3.42;2.20;;;15.30;63.00;;;;;;4992299;28;20027;-49
2021/01/29 01:42:21;;;;;;;4.25;2.20;;;15.30;63.00;;;;;;4992003;28;20377;-48
2021/01/29 01:44:47;;;;;;;5.93;2.22;;;15.20;84.00;;;;;;4995367;28;20015;-53
2021/01/29 01:47:35;;;;;;;4.20;2.20;;;15.50;84.10;;;;;;4995846;28;20019;-51
2021/01/29 01:50:23;;;;;;;4.03;2.33;;;15.30;63.10;;;;;;4995480;28;20027;-52
2021/01/29 01:52:49;;;;;;;3.35;1.88;;;15.70;63.30;;;;;;4995477;28;20034;-54
2021/01/29 01:55:22;;;;;;;4.93;2.50;;;15.30;63.10;;;;;;4995397;28;20069;-55
2021/01/29 01:57:51;;;;;;;4.00;2.47;;;15.20;63.10;;;;;;4994914;28;20034;-53
2021/01/29 02:00:27;;;;;;;2.70;2.10;;;15.40;85.20;;;;;;4995447;28;20026;-54
2021/01/29 02:02:58;;;;;;;3.45;2.08;;;15.20;63.10;;;;;;4995537;28;20073;-53
2021/01/29 02:05:28;;;;;;;3.50;1.90;;;15.20;63.20;;;;;;4995503;28;20475;-52
2021/01/29 02:08:01;;;;;;;6.68;2.58;;;15.20;63.20;;;;;;4995452;28;20046;-52
2021/01/29 02:10:28;;;;;;;3.03;1.88;;;15.20;63.20;;;;;;4994911;28;20026;-53
2021/01/29 02:12:55;;;;;;;3.42;1.70;;;15.20;63.20;;;;;;4995100;28;20088;-50
2021/01/29 02:15:25;;;;;;;2.80;2.17;;;15.00;63.10;;;;;;4996042;28;20038;-53
2021/01/29 02:18:07;;;;;;;3.28;2.25;;;15.20;63.30;;;;;;4995050;28;20026;-54
2021/01/29 02:20:54;;;;;;;4.95;2.58;;;15.20;63.30;;;;;;4995016;28;20113;-51
2021/01/29 02:23:28;;;;;;;1.80;1.67;;;15.20;63.30;;;;;;4995171;28;20022;-53
2021/01/29 02:26:02;;;;;;;4.53;1.90;;;15.20;63.30;;;;;;4994899;28;20500;-54
2021/01/29 02:29:22;;;;;;;3.38;2.25;;;15.20;84.60;;;;;;4995124;28;20053;-51
2021/01/29 02:32:28;;;;;;;3.10;2.00;;;15.20;63.30;;;;;;4934350;29;20043;-53
2021/01/29 02:35:34;;;;;;;4.18;1.98;;;15.10;63.30;;;;;;4994916;28;20289;-54
2021/01/29 02:38:38;;;;;;;3.63;1.88;;;15.20;84.80;;;;;;4994815;28;20113;-53
2021/01/29 02:41:25;;;;;;;2.78;1.73;;;15.10;63.40;;;;;;4994494;28;20030;-54
2021/01/29 02:44:19;;;;;;;2.53;1.80;;;15.10;63.30;;;;;;4994805;28;20354;-53
2021/01/29 02:46:56;;;;;;;2.70;2.10;;;15.10;63.30;;;;;;4994494;28;20027;-54
2021/01/29 02:49:24;;;;;;;2.25;1.83;;;15.10;63.40;;;;;;4994377;28;20030;-53
2021/01/29 02:51:58;;;;;;;2.15;1.80;;;15.20;84.70;;;;;;4994461;28;20034;-52
2021/01/29 02:54:33;;;;;;;3.47;2.20;;;15.40;63.60;;;;;;4994347;28;20037;-54
2021/01/29 02:57:06;;;;;;;2.70;1.38;;;15.10;63.40;;;;;;4994365;28;20030;-53
2021/01/29 02:59:39;;;;;;;2.45;1.65;;;15.10;63.50;;;;;;4960592;28;20507;-52
2021/01/29 03:02:15;;;;;;;2.95;1.75;;;15.20;84.40;;;;;;4993994;28;20030;-54
2021/01/29 03:05:18;;;;;;;3.42;2.20;;;15.10;63.50;;;;;;4994102;28;20151;-54
2021/01/29 03:08:16;;;;;;;4.03;1.98;;;15.10;63.50;;;;;;4970006;28;20402;-53
2021/01/29 03:11:07;;;;;;;2.55;1.50;;;15.00;84.50;;;;;;4993957;28;20037;-53
2021/01/29 03:13:56;;;;;;;2.78;1.85;;;15.00;63.40;;;;;;4993980;28;20641;-54
2021/01/29 03:16:25;;;;;;;3.10;1.70;;;15.00;63.40;;;;;;4994942;28;20050;-52
2021/01/29 03:19:01;;;;;;;3.47;1.60;;;15.10;63.60;;;;;;4993802;28;20465;-54
2021/01/29 03:21:33;;;;;;;3.15;1.77;;;15.00;63.50;;;;;;4994086;28;20054;-53
2021/01/29 03:24:05;;;;;;;3.60;2.15;;;15.00;84.80;;;;;;4993985;28;20026;-53
2021/01/29 03:26:55;;;;;;;3.97;1.90;;;15.00;63.60;;;;;;4993486;28;20113;-53
2021/01/29 03:29:24;;;;;;;1.50;1.38;;;15.00;63.50;;;;;;4993819;28;20077;-54
2021/01/29 03:31:55;;;;;;;2.20;1.50;;;15.00;63.60;;;;;;4993366;28;20034;-52
2021/01/29 03:34:35;;;;;;;2.85;1.65;;;14.40;84.40;;;;;;4993735;28;20061;-53
2021/01/29 03:37:33;;;;;;;2.85;1.77;;;15.00;63.60;;;;;;4993419;28;20085;-52
2021/01/29 03:39:59;;;;;;;2.00;1.80;;;15.00;63.60;;;;;;4989282;28;20038;-52
2021/01/29 03:42:25;;;;;;;3.67;2.10;;;14.70;63.40;;;;;;4993645;28;20101;-52
2021/01/29 03:45:25;;;;;;;2.65;1.48;;;14.90;63.60;;;;;;4993289;28;20481;-52
2021/01/29 03:48:09;;;;;;;1.70;1.20;;;14.90;63.60;;;;;;4989094;28;20040;-51
2021/01/29 03:51:15;;;;;;;2.65;1.42;;;15.00;63.60;;;;;;4992907;28;20085;-53
2021/01/29 03:54:08;;;;;;;2.95;1.48;;;15.00;63.60;;;;;;4984832;28;20037;-53
2021/01/29 03:56:42;;;;;;;2.50;1.50;;;14.90;63.60;;;;;;4993184;28;20161;-53
2021/01/29 03:59:35;;;;;;;1.88;1.30;;;15.00;63.70;;;;;;4993030;28;20396;-52
2021/01/29 04:02:07;;;;;;;3.00;1.50;;;14.90;63.60;;;;;;4982539;28;20057;-54
2021/01/29 04:04:37;;;;;;;1.60;1.20;;;14.90;63.70;;;;;;4992821;28;20441;-50
2021/01/29 04:07:29;;;;;;;3.20;1.67;;;14.90;63.70;;;;;;4992413;28;20038;-53
2021/01/29 04:09:57;;;;;;;2.83;1.63;;;14.90;85.10;;;;;;4984095;28;20034;-51
2021/01/29 04:12:36;;;;;;;3.47;1.75;;;15.30;63.90;;;;;;4993058;28;20042;-53
2021/01/29 04:15:30;;;;;;;2.55;1.48;;;14.90;85.20;;;;;;4994040;28;20082;-51
2021/01/29 04:18:10;;;;;;;2.13;1.50;;;14.90;63.60;;;;;;4992731;28;20093;-52
2021/01/29 04:20:45;;;;;;;;;;;14.90;63.70;;;;;;4993326;28;20018;-50
2021/01/29 04:23:24;;;;;;;2.35;1.40;;;14.90;63.70;;;;;;4992770;28;19910;-53
2021/01/29 04:26:01;;;;;;;1.33;1.10;;;14.90;85.00;;;;;;4992653;28;20023;-53
2021/01/29 04:28:31;;;;;;;2.55;1.20;;;14.90;63.70;;;;;;4992856;28;20531;-52
2021/01/29 04:31:00;;;;;;;1.42;1.30;;;14.90;84.90;;;;;;4992697;28;20430;-52
2021/01/29 04:33:45;;;;;;;3.20;1.63;;;14.90;63.70;;;;;;4992747;28;20026;-53
2021/01/29 04:36:14;;;;;;;2.30;1.20;;;14.90;63.70;;;;;;4992758;28;20496;-53
2021/01/29 04:38:47;;;;;;;1.48;1.33;;;14.80;63.60;;;;;;4992577;28;20048;-52
2021/01/29 04:41:31;;;;;;;2.17;1.30;;;14.80;84.90;;;;;;4992654;28;20121;-54
2021/01/29 04:44:15;;;;;;;1.98;1.55;;;14.80;63.60;;;;;;4992458;28;20030;-54
2021/01/29 04:47:10;;;;;;;2.28;1.20;;;14.80;63.60;;;;;;4992433;28;20507;-52
2021/01/29 04:50:05;;;;;;;1.20;1.10;;;14.80;63.60;;;;;;4992623;28;20027;-54
2021/01/29 04:52:48;;;;;;;2.15;0.90;;;14.70;84.70;;;;;;4992409;28;20043;-51
2021/01/29 04:55:44;;;;;;;2.75;1.38;;;14.80;63.70;;;;;;4992392;28;20663;-54
2021/01/29 04:58:48;;;;;;;1.48;1.10;;;14.80;63.60;;;;;;4992429;28;20026;-52
2021/01/29 05:01:34;;;;;;;1.60;1.17;;;14.80;63.60;;;;;;4992666;28;20030;-53
2021/01/29 05:04:05;;;;;;;1.83;1.33;;;14.80;63.60;;;;;;4992549;28;20065;-52
2021/01/29 05:06:50;;;;;;;1.02;0.90;;;14.80;63.60;;;;;;4992240;28;20034;-53
2021/01/29 05:09:31;;;;;;;1.88;1.10;;;14.80;63.60;;;;;;4992292;28;20524;-53
2021/01/29 05:12:09;;;;;;;1.95;1.17;;;14.70;85.00;;;;;;4992404;28;20074;-54
2021/01/29 05:14:50;;;;;;;2.33;1.20;;;14.80;63.60;;;;;;4992148;28;20654;-53
2021/01/29 05:17:36;;;;;;;1.15;0.82;;;14.80;63.60;;;;;;4993417;28;20058;-54
2021/01/29 05:20:39;;;;;;;1.17;0.85;;;14.80;63.60;;;;;;4996038;28;20014;-53
2021/01/29 05:23:16;;;;;;;2.03;1.30;;;14.70;63.60;;;;;;4995925;28;20022;-54
2021/01/29 05:26:09;;;;;;;1.90;1.30;;;14.80;63.70;;;;;;4995724;28;20070;-52
2021/01/29 05:29:12;;;;;;;1.48;1.33;;;14.80;63.60;;;;;;4996083;28;20364;-53
2021/01/29 05:32:10;;;;;;;1.30;0.88;;;14.80;63.60;;;;;;4995798;28;20038;-52
2021/01/29 05:35:02;;;;;;;1.88;1.13;;;14.80;63.60;;;;;;4995825;28;20054;-52
2021/01/29 05:37:45;;;;;;;1.80;1.27;;;14.80;63.60;;;;;;4995730;28;20807;-52
2021/01/29 05:40:43;;;;;;;1.20;0.70;;;14.80;63.50;;;;;;4995809;28;20030;-53
2021/01/29 05:43:36;;;;;;;1.25;1.00;;;14.70;63.50;;;;;;4995566;28;20022;-51
2021/01/29 05:46:12;;;;;;;2.40;0.90;;;14.80;63.50;;;;;;4995796;28;20030;-53
2021/01/29 05:48:47;;;;;;;1.13;0.73;;;14.70;63.40;;;;;;4995363;28;20064;-54
2021/01/29 05:51:32;;;;;;;1.63;0.90;;;14.70;84.70;;;;;;4995285;28;20408;-53
2021/01/29 05:54:29;;;;;;;1.15;0.80;;;14.80;63.60;;;;;;4995526;28;20108;-53
2021/01/29 05:57:22;;;;;;;1.55;0.80;;;14.90;63.60;;;;;;4995376;28;20030;-54
2021/01/29 06:00:23;;;;;;;1.00;0.80;;;14.90;63.60;;;;;;4995386;28;20669;-54
2021/01/29 06:03:15;;;;;;;2.35;0.90;;;14.80;84.80;;;;;;4981264;28;20066;-53
2021/01/29 06:06:05;;;;;;;2.95;0.85;;;14.90;63.60;;;;;;4995151;28;20027;-55
2021/01/29 06:08:49;;;;;;;0.98;0.65;;;14.90;63.60;;;;;;4995338;28;20368;-52
2021/01/29 06:11:36;;;;;;;1.70;0.93;;;14.90;63.60;;;;;;4995231;28;20037;-53
2021/01/29 06:14:19;;;;;;;1.17;0.77;;;14.90;63.60;;;;;;4995032;28;20022;-54
2021/01/29 06:17:01;;;;;;;1.13;0.68;;;14.80;85.80;;;;;;4995896;28;20050;-54
2021/01/29 06:19:52;;;;;;;1.40;0.70;;;14.90;64.00;;;;;;4995257;28;20392;-52
2021/01/29 06:22:35;;;;;;;1.42;0.88;;;14.90;63.80;;;;;;4995077;28;20070;-51
2021/01/29 06:25:29;;;;;;;1.63;0.52;;;14.80;85.00;;;;;;4995080;28;20388;-49
2021/01/29 06:28:16;;;;;;;2.33;1.17;;;14.90;63.80;;;;;;4995002;28;20022;-52
2021/01/29 06:30:59;;;;;;;1.33;0.70;;;14.90;63.80;;;;;;4993671;28;20038;-54
2021/01/29 06:33:57;;;;;;;2.88;0.88;;;14.90;63.90;;;;;;4994714;28;20068;-54
2021/01/29 06:36:39;;;;;;;0.93;0.68;;;15.00;64.00;;;;;;4988971;28;20076;-54
2021/01/29 06:39:07;;;;;;;1.48;0.70;;;15.00;63.90;;;;;;4993621;28;20023;-53
2021/01/29 06:42:03;;;;;;;1.95;0.77;;;15.00;63.80;;;;;;4993041;28;20126;-54
2021/01/29 06:45:06;;;;;;;1.35;0.73;;;15.40;64.10;;;;;;4993840;28;20540;-53
2021/01/29 06:47:58;;;;;;;1.60;0.40;;;15.00;63.80;;;;;;4993778;28;20026;-53
2021/01/29 06:50:41;;;;;;;1.23;0.55;;;15.00;63.70;;;;;;4994394;28;20066;-55
2021/01/29 06:53:22;;;;;;;1.00;0.57;;;15.00;63.70;;;;;;4994380;28;20346;-54
2021/01/29 06:56:17;;;;;;;4.30;0.70;;;15.00;84.80;;;;;;4994488;28;20053;-52
2021/01/29 06:59:28;;;;;;;1.73;0.63;;;14.90;85.00;;;;;;4994243;28;20058;-52
2021/01/29 07:02:17;;;;;;;1.67;0.60;;;15.00;63.80;;;;;;4994176;28;20102;-50
2021/01/29 07:05:21;;;;;;;1.33;0.70;;;15.00;63.90;;;;;;4976588;28;20049;-52
2021/01/29 07:08:03;;;;;;;1.95;0.70;;;15.00;85.10;;;;;;4994277;28;20033;-52
2021/01/29 07:10:50;;;;;;;1.48;0.70;;;14.90;63.90;;;;;;4994187;28;20029;-52
2021/01/29 07:13:45;;;;;;;4.43;0.90;;;14.90;64.00;;;;;;4993939;28;20033;-52
2021/01/29 07:16:46;;;;;;;2.40;0.75;;;14.90;64.00;;;;;;4995093;28;20050;-53
2021/01/29 07:19:41;;;;;;;5.78;1.00;;;14.80;64.00;;;;;;4994059;28;20432;-54
2021/01/29 07:22:32;;;;;;;3.97;0.85;;;14.80;64.00;;;;;;4994030;28;20041;-51
2021/01/29 07:25:20;;;;;;;4.75;1.25;;;14.80;64.10;;;;;;4993968;28;20432;-51
2021/01/29 07:28:30;;;;;;;5.75;1.23;;;14.80;64.00;;;;;;4993929;28;20033;-51
2021/01/29 07:31:14;;;;;;;3.42;0.90;;;14.90;64.30;;;;;;4993785;28;20033;-49
2021/01/29 07:33:45;;;;;;;7.93;1.27;;;14.90;64.40;;;;;;4993596;28;20114;-51
2021/01/29 07:36:19;;;;;;;2.88;1.00;;;14.80;85.70;;;;;;4993570;28;20023;-49
2021/01/29 07:39:05;;;;;;;5.78;1.58;;;14.80;64.50;;;;;;4993077;28;20030;-51
2021/01/29 07:42:05;;;;;;;3.55;1.13;;;14.80;64.50;;;;;;4992943;28;20476;-54
2021/01/29 07:44:37;;;;;;;;;;;14.80;64.50;;;;;;4970700;28;20085;-54
2021/01/29 07:47:20;;;;;;;6.35;1.17;;;14.80;64.40;;;;;;4993422;28;19909;-53
2021/01/29 07:50:24;;;;;;;10.00;1.73;;;14.80;64.40;;;;;;4993006;28;20393;-53
2021/01/29 07:52:56;;;;;;;8.73;1.40;;;14.80;64.40;;;;;;4992365;28;20038;-52
2021/01/29 07:55:25;;;;;;;3.83;1.40;;;14.80;64.40;;;;;;4993105;28;20038;-52
2021/01/29 07:58:19;;;;;;;6.53;1.50;;;14.80;64.30;;;;;;4993321;28;20026;-53
2021/01/29 08:00:58;;;;;;;7.20;1.55;;;14.80;64.40;;;;;;4993047;28;20030;-52
2021/01/29 08:03:52;;;;;;;9.23;1.50;;;14.80;64.40;;;;;;4993038;28;20030;-54
2021/01/29 08:06:31;;;;;;;11.20;1.70;;;14.80;64.30;;;;;;4993251;28;20049;-53
2021/01/29 08:09:14;;;;;;;6.85;1.63;;;14.90;64.20;;;;;;4992816;28;20414;-54
2021/01/29 08:11:41;;;;;;;10.90;1.75;;;14.90;64.20;;;;;;4992605;28;20030;-53
2021/01/29 08:14:33;;;;;;;9.35;1.55;;;14.90;64.30;;;;;;4992725;28;20037;-53
2021/01/29 08:17:13;;;;;;;9.68;1.70;;;14.90;64.20;;;;;;4993911;28;20060;-53
2021/01/29 08:20:03;;;;;;;11.40;2.45;;;15.00;64.50;;;;;;4992682;28;20026;-55
2021/01/29 08:22:54;;;;;;;8.68;1.95;;;15.00;64.60;;;;;;4992933;28;20413;-55
2021/01/29 08:25:41;;;;;;;8.57;2.63;;;14.90;64.70;;;;;;4992952;28;20400;-54
2021/01/29 08:28:23;;;;;;;13.50;2.40;;;15.10;87.20;;;;;;4992651;28;20404;-53
2021/01/29 08:30:51;;;;;;;12.15;2.45;;;14.90;65.70;;;;;;4992561;28;20156;-54
2021/01/29 08:33:45;;;;;;;12.80;2.83;;;14.90;66.20;;;;;;4992511;28;20034;-53
2021/01/29 08:36:10;;;;;;;11.55;2.45;;;15.40;66.00;;;;;;4992584;28;20027;-54
2021/01/29 08:39:01;;;;;;;10.68;2.60;;;14.90;65.70;;;;;;4992740;28;20029;-54
2021/01/29 08:41:54;;;;;;;14.05;2.95;;;14.90;66.00;;;;;;4992041;28;20053;-54
2021/01/29 08:44:44;;;;;;;10.02;2.40;;;14.90;66.30;;;;;;4992691;28;20465;-54
2021/01/29 08:47:33;;;;;;;12.82;2.70;;;14.80;66.00;;;;;;4992448;28;20027;-53
2021/01/29 08:50:20;;;;;;;14.55;3.22;;;14.80;65.90;;;;;;4992583;28;20121;-54
2021/01/29 08:52:58;;;;;;;10.95;2.33;;;14.80;66.00;;;;;;4992409;28;20041;-53
2021/01/29 08:55:33;;;;;;;13.30;2.55;;;14.80;66.30;;;;;;4996582;28;20030;-54
2021/01/29 08:58:25;;;;;;;11.25;2.45;;;14.80;66.00;;;;;;4996605;28;20026;-53
2021/01/29 09:01:02;;;;;;;11.75;2.58;;;14.80;66.10;;;;;;4968365;28;20041;-54
2021/01/29 09:03:39;;;;;;;11.43;3.17;;;14.80;66.20;;;;;;4996364;28;20057;-52
2021/01/29 09:06:19;;;;;;;7.45;2.13;;;14.80;66.30;;;;;;4996395;28;20030;-53
2021/01/29 09:08:45;;;;;;;10.90;2.60;;;14.80;66.30;;;;;;4996398;28;20033;-54
2021/01/29 09:11:35;;;;;;;14.30;2.72;;;14.50;66.20;;;;;;4996237;28;20451;-54
2021/01/29 09:14:10;;;;;;;12.75;3.03;;;14.70;66.40;;;;;;4996330;28;20090;-51
2021/01/29 09:16:38;;;;;;;16.25;4.22;;;14.90;66.70;;;;;;4997125;28;20136;-51
2021/01/29 09:19:08;;;;;;;9.82;2.97;;;14.50;66.50;;;;;;4996118;28;20030;-52
2021/01/29 09:21:48;;;;;;;15.03;3.43;;;14.80;66.70;;;;;;4995991;28;20018;-54
2021/01/29 09:24:31;;;;;;;9.07;2.42;;;14.80;66.60;;;;;;4996048;28;20358;-52
2021/01/29 09:27:05;;;;;;;11.77;2.70;;;14.70;66.70;;;;;;4996033;28;20053;-53
2021/01/29 09:29:38;;;;;;;10.82;2.33;;;15.00;66.80;;;;;;4995623;28;20366;-51
2021/01/29 09:32:09;;;;;;;11.10;3.22;;;14.70;66.60;;;;;;4995931;28;20044;-52
2021/01/29 09:34:48;;;;;;;10.27;2.55;;;15.30;66.70;;;;;;4995635;28;20109;-54
2021/01/29 09:37:29;;;;;;;12.57;2.92;;;14.80;66.10;;;;;;4995643;28;20030;-52
2021/01/29 09:39:54;;;;;;;;;;;14.80;65.70;;;;;;4996301;28;20027;-53
2021/01/29 09:42:43;;;;;;;11.15;3.03;;;14.00;65.00;;;;;;4995508;28;20280;-53
2021/01/29 09:45:16;;;;;;;9.38;3.33;;;14.80;65.30;;;;;;4957094;28;20124;-53
2021/01/29 09:47:45;;;;;;;14.98;2.95;;;14.80;65.30;;;;;;4995601;28;20057;-53
2021/01/29 09:50:20;;;;;;;14.85;3.13;;;14.80;65.20;;;;;;4995267;28;20515;-52
2021/01/29 09:53:05;;;;;;;13.50;2.40;;;14.50;86.80;;;;;;4977873;28;20113;-52
2021/01/29 09:55:41;;;;;;;13.10;2.83;;;14.80;65.30;;;;;;4995275;28;20113;-53
2021/01/29 09:58:19;;;;;;;13.35;2.67;;;14.80;65.50;;;;;;4995361;28;20101;-52
2021/01/29 10:00:58;;;;;;;8.57;2.38;;;14.80;65.70;;;;;;4995378;28;20026;-54
2021/01/29 10:03:31;;;;;;;11.70;2.83;;;14.80;65.80;;;;;;4995048;28;20377;-54
2021/01/29 10:06:02;;;;;;;14.70;2.63;;;14.80;65.80;;;;;;4994000;28;20057;-54
2021/01/29 10:08:41;;;;;;;16.90;2.95;;;14.80;65.70;;;;;;4995678;28;20544;-54
2021/01/29 10:11:15;;;;;;;13.90;2.70;;;14.80;65.90;;;;;;4995143;28;20088;-54
2021/01/29 10:14:01;;;;;;;12.95;2.90;;;14.80;65.70;;;;;;4994969;28;20018;-53
2021/01/29 10:16:39;;;;;;;12.27;2.83;;;14.80;65.60;;;;;;4996020;28;20133;-53
2021/01/29 10:19:27;;;;;;;13.90;3.00;;;14.80;65.50;;;;;;4994881;28;20080;-54
2021/01/29 10:21:58;;;;;;;12.13;3.08;;;14.80;65.60;;;;;;4994988;28;20069;-53
2021/01/29 10:24:40;;;;;;;10.20;2.72;;;14.80;65.60;;;;;;4994877;28;20022;-53
2021/01/29 10:27:20;;;;;;;11.10;3.00;;;14.80;65.50;;;;;;4994915;28;20113;-53
2021/01/29 10:29:47;;;;;;;;;;;14.80;65.50;;;;;;4995226;28;20026;-53
2021/01/29 10:32:29;;;;;;;13.73;2.72;;;14.80;65.40;;;;;;4994481;28;19925;-54
2021/01/29 10:35:01;;;;;;;18.05;3.67;;;14.90;65.40;;;;;;4994730;28;20026;-50
2021/01/29 10:37:58;;;;;;;12.73;3.08;;;14.90;65.20;;;;;;4994507;28;20045;-53
2021/01/29 10:40:34;;;;;;;19.52;4.28;;;14.90;65.00;;;;;;4967556;28;20397;-53
2021/01/29 10:43:26;;;;;;;14.05;3.47;;;15.00;65.00;;;;;;4994634;28;20034;-53
2021/01/29 10:45:58;;;;;;;12.15;3.17;;;15.00;65.00;;;;;;4994405;28;20030;-53
2021/01/29 10:48:26;;;;;;;11.77;4.13;;;15.00;64.90;;;;;;4994454;28;20031;-53
2021/01/29 10:51:36;;;;;;;14.75;2.85;;;15.10;64.90;;;;;;4994522;28;20034;-53
2021/01/29 10:54:03;;;;;;;15.05;3.45;;;15.10;64.80;;;;;;4994712;28;20022;-54
2021/01/29 10:56:58;;;;;;;20.33;3.33;;;15.20;64.60;;;;;;4994363;28;20026;-54
2021/01/29 10:59:53;;;;;;;13.52;3.08;;;15.20;64.50;;;;;;4994493;28;20400;-54
2021/01/29 11:02:40;;;;;;;12.52;2.70;;;15.30;64.50;;;;;;4994440;28;20017;-54
2021/01/29 11:05:23;;;;;;;14.23;3.47;;;15.30;64.50;;;;;;4994354;28;20053;-57
2021/01/29 11:07:52;;;;;;;13.95;2.80;;;15.40;85.50;;;;;;4976490;28;20484;-54
2021/01/29 11:10:30;;;;;;;16.48;3.88;;;15.30;64.10;;;;;;4994446;28;20037;-53
2021/01/29 11:13:12;;;;;;;15.40;3.70;;;15.30;64.10;;;;;;4994060;28;20089;-54
2021/01/29 11:15:53;;;;;;;14.68;3.38;;;15.40;64.50;;;;;;4993624;28;20029;-52
2021/01/29 11:18:29;;;;;;;14.73;3.33;;;15.40;64.40;;;;;;4975056;28;20382;-51
2021/01/29 11:21:26;;;;;;;15.50;4.35;;;15.40;64.10;;;;;;4974766;28;20443;-48
2021/01/29 11:24:22;;;;;;;13.85;3.58;;;15.40;64.40;;;;;;4974552;28;20035;-52
2021/01/29 11:27:19;;;;;;;10.32;2.85;;;15.40;64.90;;;;;;4974328;28;20031;-51
2021/01/29 11:30:16;;;;;;;16.85;2.55;;;15.50;64.40;;;;;;4974256;28;20027;-53
2021/01/29 11:32:44;;;;;;;13.55;2.67;;;15.40;64.60;;;;;;4974230;28;20101;-53
2021/01/29 11:35:37;;;;;;;10.40;3.08;;;15.40;64.70;;;;;;4974206;28;20019;-51
2021/01/29 11:38:09;;;;;;;16.23;2.90;;;15.40;64.80;;;;;;4974539;28;20062;-51
2021/01/29 11:40:50;;;;;;;15.75;3.38;;;15.40;64.90;;;;;;4974143;28;20354;-54
2021/01/29 11:43:52;;;;;;;10.48;2.85;;;15.70;65.00;;;;;;4973973;28;20109;-53
2021/01/29 11:46:39;;;;;;;16.42;3.08;;;15.30;64.80;;;;;;4973689;28;20031;-51
2021/01/29 11:49:19;;;;;;;14.10;2.30;;;15.30;64.80;;;;;;4973832;28;20098;-53
2021/01/29 11:52:11;;;;;;;11.52;2.67;;;15.30;64.90;;;;;;4974058;28;20034;-52
2021/01/29 11:54:54;;;;;;;13.48;2.65;;;15.30;64.90;;;;;;4973738;28;20019;-53
2021/01/29 11:57:23;;;;;;;14.85;2.72;;;15.20;64.90;;;;;;4973669;28;20031;-54
2021/01/29 12:00:21;;;;;;;12.45;2.65;;;15.20;65.10;;;;;;4973779;28;20026;-53
2021/01/29 12:02:57;;;;;;;14.68;2.65;;;15.20;65.00;;;;;;4973414;28;20037;-51
2021/01/29 12:05:35;;;;;;;9.07;2.63;;;15.20;65.00;;;;;;4973798;28;20022;-53
2021/01/29 12:08:06;;;;;;;14.10;3.00;;;15.10;65.10;;;;;;4973811;28;20050;-51
2021/01/29 12:10:43;;;;;;;18.95;3.60;;;15.10;65.20;;;;;;4973258;28;20035;-53
2021/01/29 12:13:18;;;;;;;12.13;2.65;;;15.10;65.20;;;;;;4956050;28;20050;-53
2021/01/29 12:15:54;;;;;;;15.07;3.05;;;15.10;65.20;;;;;;4973256;28;20671;-52
2021/01/29 12:18:22;;;;;;;12.18;2.72;;;15.10;65.10;;;;;;4973308;28;20043;-52
2021/01/29 12:20:48;;;;;;;13.25;2.97;;;15.10;65.00;;;;;;4955814;28;20478;-52
2021/01/29 12:23:32;;;;;;;10.35;2.08;;;15.10;65.00;;;;;;4973191;28;20027;-52
2021/01/29 12:26:02;;;;;;;14.70;3.25;;;15.10;64.90;;;;;;4973535;28;20502;-51
2021/01/29 12:28:33;;;;;;;10.23;2.60;;;15.00;65.00;;;;;;4972235;28;20033;-51
2021/01/29 12:31:29;;;;;;;13.85;3.13;;;15.00;65.10;;;;;;4973054;28;20041;-53
2021/01/29 12:34:22;;;;;;;7.53;2.38;;;15.00;65.10;;;;;;4973332;28;20031;-53
2021/01/29 12:37:02;;;;;;;7.43;1.95;;;15.00;65.10;;;;;;4973068;28;20097;-52
2021/01/29 12:39:34;;;;;;;11.57;1.90;;;15.00;65.10;;;;;;4973327;28;20030;-51
2021/01/29 12:42:14;;;;;;;14.52;3.08;;;15.00;65.20;;;;;;4973242;28;20204;-51
2021/01/29 12:45:06;;;;;;;9.38;2.40;;;15.00;65.30;;;;;;4955591;28;20553;-50
2021/01/29 12:47:50;;;;;;;9.10;2.35;;;14.90;65.20;;;;;;4954871;28;20409;-52
2021/01/29 12:50:58;;;;;;;12.63;3.00;;;15.00;65.50;;;;;;4972897;28;20022;-51
2021/01/29 12:53:29;;;;;;;11.23;2.35;;;14.90;86.80;;;;;;4973296;28;20030;-54
2021/01/29 12:56:04;;;;;;;10.57;2.65;;;15.00;65.50;;;;;;4972996;28;20366;-54
2021/01/29 12:58:36;;;;;;;11.65;2.78;;;15.10;65.50;;;;;;4972815;28;20091;-54
2021/01/29 13:01:04;;;;;;;10.75;2.65;;;14.90;65.40;;;;;;4972739;28;20081;-53
2021/01/29 13:03:58;;;;;;;7.95;2.22;;;15.10;65.50;;;;;;4972856;28;20449;-53
2021/01/29 13:06:49;;;;;;;11.07;3.17;;;15.20;65.30;;;;;;4972821;28;20031;-53
2021/01/29 13:09:32;;;;;;;10.25;2.58;;;15.30;65.30;;;;;;4972955;28;20103;-54
2021/01/29 13:12:16;;;;;;;10.65;2.83;;;15.30;65.40;;;;;;4972866;28;20098;-55
2021/01/29 13:14:50;;;;;;;14.05;2.40;;;15.30;65.40;;;;;;4972956;28;20037;-53
2021/01/29 13:17:46;;;;;;;8.05;2.33;;;15.40;65.10;;;;;;4985319;28;20462;-55
2021/01/29 13:20:29;;;;;;;12.13;2.67;;;15.40;65.00;;;;;;4992231;28;20516;-54
2021/01/29 13:23:15;;;;;;;10.88;2.42;;;15.50;65.40;;;;;;4992438;28;20031;-53
2021/01/29 13:26:15;;;;;;;13.43;3.10;;;15.80;65.30;;;;;;4974645;28;20489;-55
2021/01/29 13:29:04;;;;;;;14.18;2.55;;;15.60;64.70;;;;;;4981465;28;20042;-55
2021/01/29 13:31:37;;;;;;;9.73;2.67;;;15.60;64.40;;;;;;4991773;28;20030;-55
2021/01/29 13:34:15;;;;;;;11.40;2.60;;;15.70;64.40;;;;;;4992328;28;20448;-53
2021/01/29 13:37:04;;;;;;;11.20;2.75;;;15.70;64.00;;;;;;4992021;28;20465;-55
2021/01/29 13:39:41;;;;;;;13.35;2.30;;;15.70;64.20;;;;;;4992966;28;20405;-55
2021/01/29 13:42:18;;;;;;;8.55;2.40;;;15.80;64.00;;;;;;4995798;28;20045;-54
2021/01/29 13:44:56;;;;;;;10.50;2.42;;;15.80;64.20;;;;;;4995658;28;20033;-53
2021/01/29 13:47:35;;;;;;;10.20;2.60;;;15.80;64.50;;;;;;4995641;28;20022;-55
2021/01/29 13:50:23;;;;;;;10.93;2.67;;;15.80;64.60;;;;;;4995785;28;20026;-53
2021/01/29 13:52:55;;;;;;;10.43;2.08;;;15.80;64.80;;;;;;4995834;28;20045;-52
2021/01/29 13:55:33;;;;;;;7.47;2.20;;;15.80;64.60;;;;;;4995705;28;20118;-55